Time,TemperatureF,DewpointF,PressureIn,WindDirection,WindDirectionDegrees,WindSpeedMPH,WindSpeedGustMPH,Humidity,HourlyPrecipIn,Conditions,Clouds,dailyrainin,SoftwareType,DateUTC
2013-01-27 00:01:00,47.0,46.0,-100.00,WSW,245,10.0,14.0,97,-99.99,,,-99.99,,2013-01-27 08:01:00,
2013-01-27 00:11:00,47.0,46.0,-100.00,WSW,243,9.0,13.0,97,-99.99,,,-99.99,,2013-01-27 08:11:00,
2013-01-27 00:21:00,47.0,46.0,-100.00,WSW,249,8.0,14.0,97,-99.99,,,-99.99,,2013-01-27 08:21:00,
2013-01-27 00:31:00,47.0,46.0,-100.00,WSW,248,9.0,13.0,97,-99.99,,,-99.99,,2013-01-27 08:31:00,
2013-01-27 00:41:00,47.0,46.0,-100.00,WSW,243,9.0,13.0,97,-99.99,,,-99.99,,2013-01-27 08:41:00,
2013-01-27 00:52:00,47.0,46.0,-100.00,WSW,243,9.0,14.0,97,-99.99,,,-99.99,,2013-01-27 08:52:00,
2013-01-27 01:02:00,47.0,46.0,-100.00,WSW,243,7.0,13.0,97,-99.99,,,-99.99,,2013-01-27 09:02:00,
2013-01-27 01:11:00,47.0,46.0,-100.00,WSW,240,8.0,13.0,97,-99.99,,,-99.99,,2013-01-27 09:11:00,
2013-01-27 01:21:00,47.0,46.0,-100.00,WSW,245,10.0,18.0,97,-99.99,,,-99.99,,2013-01-27 09:21:00,
2013-01-27 01:31:00,47.0,46.0,-100.00,WSW,242,11.0,16.0,97,-99.99,,,-99.99,,2013-01-27 09:31:00,
2013-01-27 01:41:00,47.0,46.0,-100.00,WSW,239,8.0,12.0,97,-99.99,,,-99.99,,2013-01-27 09:41:00,
2013-01-27 01:51:00,47.0,46.0,-100.00,WSW,237,7.0,13.0,97,-99.99,,,-99.99,,2013-01-27 09:51:00,
2013-01-27 02:01:00,47.0,46.0,-100.00,WSW,237,7.0,13.0,97,-99.99,,,-99.99,,2013-01-27 10:01:00,
2013-01-27 02:11:00,47.0,46.0,-100.00,WSW,239,9.0,14.0,97,-99.99,,,-99.99,,2013-01-27 10:11:00,
2013-01-27 02:21:00,47.0,46.0,-100.00,WSW,239,8.0,14.0,97,-99.99,,,-99.99,,2013-01-27 10:21:00,
2013-01-27 02:31:00,47.0,46.0,-100.00,WSW,239,10.0,16.0,97,-99.99,,,-99.99,,2013-01-27 10:31:00,
2013-01-27 02:41:00,47.0,46.0,-100.00,WSW,238,11.0,17.0,97,-99.99,,,-99.99,,2013-01-27 10:41:00,
2013-01-27 02:51:00,47.0,46.0,-100.00,WSW,243,10.0,16.0,97,-99.99,,,-99.99,,2013-01-27 10:51:00,
2013-01-27 03:01:00,47.0,46.0,-100.00,WSW,242,12.0,18.0,97,-99.99,,,-99.99,,2013-01-27 11:01:00,
2013-01-27 03:11:00,47.0,46.0,-100.00,WSW,250,11.0,16.0,97,-99.99,,,-99.99,,2013-01-27 11:11:00,
2013-01-27 03:21:00,47.0,46.0,-100.00,WSW,255,10.0,17.0,97,-99.99,,,-99.99,,2013-01-27 11:21:00,
2013-01-27 03:32:00,47.0,46.0,-100.00,WSW,254,11.0,18.0,97,-99.99,,,-99.99,,2013-01-27 11:32:00,
2013-01-27 03:42:00,46.0,45.0,-100.00,WSW,255,11.0,20.0,97,-99.99,,,-99.99,,2013-01-27 11:42:00,
2013-01-27 03:52:00,46.0,45.0,-100.00,West,259,11.0,16.0,97,-99.99,,,-99.99,,2013-01-27 11:52:00,
2013-01-27 04:02:00,46.0,45.0,-100.00,WSW,252,11.0,20.0,97,-99.99,,,-99.99,,2013-01-27 12:02:00,
2013-01-27 04:11:00,46.0,45.0,-100.00,WSW,248,12.0,16.0,97,-99.99,,,-99.99,,2013-01-27 12:11:00,
2013-01-27 04:21:00,46.0,45.0,-100.00,WSW,251,9.0,16.0,97,-99.99,,,-99.99,,2013-01-27 12:21:00,
2013-01-27 04:32:00,46.0,45.0,-100.00,WSW,250,10.0,18.0,97,-99.99,,,-99.99,,2013-01-27 12:32:00,
2013-01-27 04:42:00,46.0,45.0,-100.00,WSW,250,10.0,18.0,97,-99.99,,,-99.99,,2013-01-27 12:42:00,
2013-01-27 04:52:00,46.0,45.0,-100.00,WSW,249,9.0,14.0,97,-99.99,,,-99.99,,2013-01-27 12:52:00,
2013-01-27 05:01:00,46.0,45.0,-100.00,WSW,247,10.0,15.0,97,-99.99,,,-99.99,,2013-01-27 13:01:00,
2013-01-27 05:11:00,46.0,45.0,-100.00,WSW,244,10.0,14.0,97,-99.99,,,-99.99,,2013-01-27 13:11:00,
2013-01-27 05:22:00,46.0,45.0,-100.00,WSW,243,7.0,12.0,97,-99.99,,,-99.99,,2013-01-27 13:22:00,
2013-01-27 05:31:00,46.0,45.0,-100.00,WSW,242,8.0,12.0,97,-99.99,,,-99.99,,2013-01-27 13:31:00,
2013-01-27 05:41:00,46.0,45.0,-100.00,WSW,242,10.0,15.0,97,-99.99,,,-99.99,,2013-01-27 13:41:00,
2013-01-27 05:52:00,46.0,45.0,-100.00,WSW,245,11.0,16.0,97,-99.99,,,-99.99,,2013-01-27 13:52:00,
2013-01-27 06:01:00,46.0,45.0,-100.00,WSW,247,11.0,17.0,97,-99.99,,,-99.99,,2013-01-27 14:01:00,
2013-01-27 06:11:00,46.0,45.0,-100.00,WSW,238,11.0,18.0,97,-99.99,,,-99.99,,2013-01-27 14:11:00,
2013-01-27 06:21:00,46.0,45.0,-100.00,SW,229,11.0,20.0,97,-99.99,,,-99.99,,2013-01-27 14:21:00,
2013-01-27 06:31:00,46.0,45.0,-100.00,SW,224,12.0,16.0,97,-99.99,,,-99.99,,2013-01-27 14:31:00,
2013-01-27 06:42:00,46.0,45.0,-100.00,SW,229,11.0,17.0,97,-99.99,,,-99.99,,2013-01-27 14:42:00,
2013-01-27 06:52:00,46.0,45.0,-100.00,SW,227,10.0,16.0,97,-99.99,,,-99.99,,2013-01-27 14:52:00,
2013-01-27 07:01:00,46.0,45.0,-100.00,WSW,238,11.0,16.0,97,-99.99,,,-99.99,,2013-01-27 15:01:00,
2013-01-27 07:11:00,46.0,45.0,-100.00,WSW,246,12.0,18.0,97,-99.99,,,-99.99,,2013-01-27 15:11:00,
2013-01-27 07:21:00,45.0,44.0,-100.00,WSW,244,14.0,20.0,97,-99.99,,,-99.99,,2013-01-27 15:21:00,
2013-01-27 07:32:00,45.0,44.0,-100.00,WSW,247,13.0,19.0,97,-99.99,,,-99.99,,2013-01-27 15:32:00,
2013-01-27 07:42:00,45.0,44.0,-100.00,WSW,237,13.0,18.0,97,-99.99,,,-99.99,,2013-01-27 15:42:00,
2013-01-27 07:52:00,45.0,44.0,-100.00,WSW,241,14.0,22.0,97,-99.99,,,-99.99,,2013-01-27 15:52:00,
2013-01-27 08:01:00,45.0,44.0,-100.00,WSW,239,14.0,23.0,96,-99.99,,,-99.99,,2013-01-27 16:01:00,
2013-01-27 08:11:00,45.0,44.0,-100.00,WSW,241,15.0,22.0,96,-99.99,,,-99.99,,2013-01-27 16:11:00,
2013-01-27 08:21:00,45.0,44.0,-100.00,WSW,244,14.0,21.0,95,-99.99,,,-99.99,,2013-01-27 16:21:00,
2013-01-27 08:32:00,45.0,44.0,-100.00,WSW,247,13.0,18.0,95,-99.99,,,-99.99,,2013-01-27 16:32:00,
2013-01-27 08:41:00,45.0,44.0,-100.00,WSW,247,13.0,18.0,95,-99.99,,,-99.99,,2013-01-27 16:41:00,
2013-01-27 08:52:00,45.0,43.0,-100.00,WSW,244,13.0,19.0,94,-99.99,,,-99.99,,2013-01-27 16:52:00,
2013-01-27 09:01:00,45.0,43.0,-100.00,WSW,247,14.0,22.0,93,-99.99,,,-99.99,,2013-01-27 17:01:00,
2013-01-27 09:11:00,45.0,43.0,-100.00,WSW,243,15.0,23.0,93,-99.99,,,-99.99,,2013-01-27 17:11:00,
2013-01-27 09:21:00,46.0,44.0,-100.00,WSW,241,15.0,22.0,92,-99.99,,,-99.99,,2013-01-27 17:21:00,
2013-01-27 09:32:00,46.0,44.0,-100.00,WSW,243,16.0,24.0,91,-99.99,,,-99.99,,2013-01-27 17:32:00,
2013-01-27 09:42:00,47.0,44.0,-100.00,WSW,243,16.0,24.0,89,-99.99,,,-99.99,,2013-01-27 17:42:00,
2013-01-27 09:52:00,47.0,43.0,-100.00,WSW,243,16.0,24.0,86,-99.99,,,-99.99,,2013-01-27 17:52:00,
2013-01-27 10:01:00,47.0,43.0,-100.00,WSW,249,16.0,24.0,85,-99.99,,,-99.99,,2013-01-27 18:01:00,
2013-01-27 10:11:00,48.0,43.0,-100.00,WSW,239,17.0,24.0,83,-99.99,,,-99.99,,2013-01-27 18:11:00,
2013-01-27 10:22:00,47.0,42.0,-100.00,WSW,244,17.0,24.0,83,-99.99,,,-99.99,,2013-01-27 18:22:00,
2013-01-27 10:31:00,47.0,42.0,-100.00,WSW,238,17.0,24.0,84,-99.99,,,-99.99,,2013-01-27 18:31:00,
2013-01-27 10:41:00,46.0,42.0,-100.00,WSW,239,17.0,24.0,85,-99.99,,,-99.99,,2013-01-27 18:41:00,
2013-01-27 10:51:00,47.0,42.0,-100.00,WSW,242,17.0,24.0,83,-99.99,,,-99.99,,2013-01-27 18:51:00,
2013-01-27 11:01:00,46.0,41.0,-100.00,WSW,244,17.0,26.0,84,-99.99,,,-99.99,,2013-01-27 19:01:00,
2013-01-27 11:11:00,47.0,42.0,-100.00,SW,226,17.0,26.0,82,-99.99,,,-99.99,,2013-01-27 19:11:00,
2013-01-27 11:21:00,47.0,41.0,-100.00,SW,230,18.0,26.0,81,-99.99,,,-99.99,,2013-01-27 19:21:00,
2013-01-27 11:32:00,48.0,42.0,-100.00,SW,232,17.0,25.0,81,-99.99,,,-99.99,,2013-01-27 19:32:00,
2013-01-27 11:41:00,47.0,41.0,-100.00,WSW,241,18.0,25.0,80,-99.99,,,-99.99,,2013-01-27 19:41:00,
2013-01-27 11:51:00,47.0,41.0,-100.00,SW,233,19.0,26.0,79,-99.99,,,-99.99,,2013-01-27 19:51:00,
2013-01-27 12:02:00,47.0,41.0,-100.00,SW,233,21.0,30.0,80,-99.99,,,-99.99,,2013-01-27 20:02:00,
2013-01-27 12:11:00,47.0,41.0,-100.00,SW,233,21.0,30.0,80,-99.99,,,-99.99,,2013-01-27 20:11:00,
2013-01-27 12:22:00,46.0,41.0,-100.00,WSW,246,20.0,28.0,81,-99.99,,,-99.99,,2013-01-27 20:22:00,
2013-01-27 12:32:00,47.0,41.0,-100.00,WSW,243,20.0,32.0,81,-99.99,,,-99.99,,2013-01-27 20:32:00,
2013-01-27 12:41:00,48.0,42.0,-100.00,WSW,243,19.0,29.0,81,-99.99,,,-99.99,,2013-01-27 20:41:00,
2013-01-27 12:52:00,46.0,41.0,-100.00,WSW,240,21.0,30.0,81,-99.99,,,-99.99,,2013-01-27 20:52:00,
2013-01-27 13:01:00,46.0,41.0,-100.00,WSW,244,22.0,32.0,82,-99.99,,,-99.99,,2013-01-27 21:01:00,
2013-01-27 13:11:00,46.0,41.0,-100.00,WSW,238,19.0,29.0,83,-99.99,,,-99.99,,2013-01-27 21:11:00,
2013-01-27 13:22:00,46.0,41.0,-100.00,WSW,242,18.0,28.0,84,-99.99,,,-99.99,,2013-01-27 21:22:00,
2013-01-27 13:32:00,45.0,41.0,-100.00,WSW,244,22.0,31.0,86,-99.99,,,-99.99,,2013-01-27 21:32:00,
2013-01-27 13:42:00,45.0,41.0,-100.00,WSW,243,22.0,31.0,87,-99.99,,,-99.99,,2013-01-27 21:42:00,
2013-01-27 13:52:00,45.0,41.0,-100.00,WSW,242,21.0,34.0,87,-99.99,,,-99.99,,2013-01-27 21:52:00,
2013-01-27 14:01:00,45.0,42.0,-100.00,WSW,242,22.0,32.0,88,-99.99,,,-99.99,,2013-01-27 22:01:00,
2013-01-27 14:11:00,45.0,41.0,-100.00,WSW,238,21.0,31.0,86,-99.99,,,-99.99,,2013-01-27 22:11:00,
2013-01-27 14:21:00,45.0,41.0,-100.00,WSW,245,21.0,33.0,87,-99.99,,,-99.99,,2013-01-27 22:21:00,
2013-01-27 14:31:00,44.0,41.0,-100.00,WSW,247,21.0,31.0,89,-99.99,,,-99.99,,2013-01-27 22:31:00,
2013-01-27 14:42:00,44.0,41.0,-100.00,WSW,247,21.0,31.0,89,-99.99,,,-99.99,,2013-01-27 22:42:00,
2013-01-27 14:51:00,43.0,41.0,-100.00,WSW,248,18.0,29.0,92,-99.99,,,-99.99,,2013-01-27 22:51:00,
2013-01-27 15:01:00,43.0,41.0,-100.00,WSW,248,18.0,29.0,92,-99.99,,,-99.99,,2013-01-27 23:01:00,
2013-01-27 15:11:00,42.0,40.0,-100.00,WSW,246,19.0,29.0,91,-99.99,,,-99.99,,2013-01-27 23:11:00,
2013-01-27 15:21:00,42.0,39.0,-100.00,WSW,248,19.0,29.0,90,-99.99,,,-99.99,,2013-01-27 23:21:00,
2013-01-27 15:31:00,42.0,39.0,-100.00,WSW,245,19.0,29.0,89,-99.99,,,-99.99,,2013-01-27 23:31:00,
2013-01-27 15:41:00,42.0,39.0,-100.00,WSW,245,19.0,29.0,89,-99.99,,,-99.99,,2013-01-27 23:41:00,
2013-01-27 15:52:00,42.0,39.0,-100.00,WSW,251,18.0,29.0,89,-99.99,,,-99.99,,2013-01-27 23:52:00,
2013-01-27 16:01:00,42.0,39.0,-100.00,WSW,251,18.0,29.0,89,-99.99,,,-99.99,,2013-01-28 00:01:00,
2013-01-27 16:11:00,41.0,38.0,-100.00,WSW,252,18.0,27.0,88,-99.99,,,-99.99,,2013-01-28 00:11:00,
2013-01-27 16:21:00,41.0,38.0,-100.00,WSW,252,19.0,28.0,88,-99.99,,,-99.99,,2013-01-28 00:21:00,
2013-01-27 16:32:00,40.0,37.0,-100.00,WSW,255,18.0,31.0,90,-99.99,,,-99.99,,2013-01-28 00:32:00,
2013-01-27 16:41:00,40.0,37.0,-100.00,WSW,255,18.0,31.0,90,-99.99,,,-99.99,,2013-01-28 00:41:00,
2013-01-27 16:51:00,40.0,37.0,-100.00,WSW,252,19.0,26.0,90,-99.99,,,-99.99,,2013-01-28 00:51:00,
2013-01-27 17:01:00,40.0,37.0,-100.00,WSW,252,19.0,26.0,90,-99.99,,,-99.99,,2013-01-28 01:01:00,
2013-01-27 17:11:00,39.0,36.0,-100.00,WSW,254,18.0,28.0,90,-99.99,,,-99.99,,2013-01-28 01:11:00,
2013-01-27 17:21:00,39.0,37.0,-100.00,WSW,251,20.0,28.0,92,-99.99,,,-99.99,,2013-01-28 01:21:00,
2013-01-27 17:32:00,39.0,37.0,-100.00,WSW,252,21.0,31.0,92,-99.99,,,-99.99,,2013-01-28 01:32:00,
2013-01-27 17:42:00,38.0,36.0,-100.00,WSW,250,21.0,32.0,91,-99.99,,,-99.99,,2013-01-28 01:42:00,
2013-01-27 17:51:00,38.0,35.0,-100.00,WSW,251,21.0,30.0,90,-99.99,,,-99.99,,2013-01-28 01:51:00,
2013-01-27 18:01:00,38.0,35.0,-100.00,WSW,248,21.0,30.0,89,-99.99,,,-99.99,,2013-01-28 02:01:00,
2013-01-27 18:11:00,38.0,35.0,-100.00,WSW,241,22.0,30.0,89,-99.99,,,-99.99,,2013-01-28 02:11:00,
2013-01-27 18:21:00,38.0,35.0,-100.00,WSW,243,21.0,29.0,90,-99.99,,,-99.99,,2013-01-28 02:21:00,
2013-01-27 18:32:00,38.0,35.0,-100.00,WSW,244,22.0,33.0,90,-99.99,,,-99.99,,2013-01-28 02:32:00,
2013-01-27 18:41:00,38.0,36.0,-100.00,WSW,249,19.0,28.0,92,-99.99,,,-99.99,,2013-01-28 02:41:00,
2013-01-27 18:52:00,37.0,35.0,-100.00,WSW,252,21.0,33.0,92,-99.99,,,-99.99,,2013-01-28 02:52:00,
2013-01-27 19:01:00,37.0,35.0,-100.00,WSW,248,23.0,35.0,92,-99.99,,,-99.99,,2013-01-28 03:01:00,
2013-01-27 19:11:00,37.0,35.0,-100.00,WSW,249,22.0,32.0,92,-99.99,,,-99.99,,2013-01-28 03:11:00,
2013-01-27 19:21:00,37.0,34.0,-100.00,WSW,252,21.0,34.0,90,-99.99,,,-99.99,,2013-01-28 03:21:00,
2013-01-27 19:32:00,36.0,33.0,-100.00,WSW,248,25.0,37.0,87,-99.99,,,-99.99,,2013-01-28 03:32:00,
2013-01-27 19:41:00,36.0,33.0,-100.00,WSW,255,21.0,31.0,88,-99.99,,,-99.99,,2013-01-28 03:41:00,
2013-01-27 19:52:00,36.0,33.0,-100.00,WSW,255,25.0,33.0,90,-99.99,,,-99.99,,2013-01-28 03:52:00,
2013-01-27 20:01:00,36.0,33.0,-100.00,WSW,252,24.0,35.0,90,-99.99,,,-99.99,,2013-01-28 04:01:00,
2013-01-27 20:11:00,36.0,33.0,-100.00,WSW,253,24.0,35.0,89,-99.99,,,-99.99,,2013-01-28 04:11:00,
2013-01-27 20:21:00,36.0,33.0,-100.00,WSW,250,25.0,37.0,87,-99.99,,,-99.99,,2013-01-28 04:21:00,
2013-01-27 20:31:00,36.0,33.0,-100.00,WSW,253,25.0,38.0,89,-99.99,,,-99.99,,2013-01-28 04:31:00,
2013-01-27 20:41:00,36.0,34.0,-100.00,WSW,253,25.0,36.0,91,-99.99,,,-99.99,,2013-01-28 04:41:00,
2013-01-27 20:52:00,36.0,34.0,-100.00,WSW,257,25.0,37.0,92,-99.99,,,-99.99,,2013-01-28 04:52:00,
2013-01-27 21:03:00,36.0,34.0,-100.00,West,259,24.0,39.0,93,-99.99,,,-99.99,,2013-01-28 05:03:00,
2013-01-27 21:11:00,36.0,34.0,-100.00,WSW,254,25.0,36.0,93,-99.99,,,-99.99,,2013-01-28 05:11:00,
2013-01-27 21:21:00,36.0,34.0,-100.00,WSW,246,25.0,35.0,91,-99.99,,,-99.99,,2013-01-28 05:21:00,
2013-01-27 21:31:00,36.0,33.0,-100.00,WSW,245,24.0,36.0,90,-99.99,,,-99.99,,2013-01-28 05:31:00,
2013-01-27 21:41:00,36.0,33.0,-100.00,WSW,245,25.0,33.0,90,-99.99,,,-99.99,,2013-01-28 05:41:00,
2013-01-27 21:52:00,36.0,34.0,-100.00,WSW,244,26.0,40.0,91,-99.99,,,-99.99,,2013-01-28 05:52:00,
2013-01-27 22:01:00,36.0,34.0,-100.00,WSW,243,24.0,36.0,91,-99.99,,,-99.99,,2013-01-28 06:01:00,
2013-01-27 22:11:00,36.0,34.0,-100.00,WSW,245,25.0,35.0,92,-99.99,,,-99.99,,2013-01-28 06:11:00,
2013-01-27 22:21:00,36.0,34.0,-100.00,WSW,241,24.0,33.0,92,-99.99,,,-99.99,,2013-01-28 06:21:00,
2013-01-27 22:31:00,36.0,34.0,-100.00,WSW,249,23.0,32.0,92,-99.99,,,-99.99,,2013-01-28 06:31:00,
2013-01-27 22:42:00,36.0,34.0,-100.00,WSW,245,23.0,35.0,92,-99.99,,,-99.99,,2013-01-28 06:42:00,
2013-01-27 22:52:00,35.0,33.0,-100.00,WSW,243,24.0,35.0,92,-99.99,,,-99.99,,2013-01-28 06:52:00,
2013-01-27 23:02:00,35.0,33.0,-100.00,WSW,246,25.0,35.0,92,-99.99,,,-99.99,,2013-01-28 07:02:00,
2013-01-27 23:11:00,35.0,33.0,-100.00,WSW,246,25.0,35.0,93,-99.99,,,-99.99,,2013-01-28 07:11:00,
2013-01-27 23:21:00,35.0,33.0,-100.00,WSW,248,22.0,36.0,92,-99.99,,,-99.99,,2013-01-28 07:21:00,
2013-01-27 23:31:00,35.0,33.0,-100.00,WSW,246,24.0,34.0,93,-99.99,,,-99.99,,2013-01-28 07:31:00,
2013-01-27 23:41:00,35.0,33.0,-100.00,WSW,250,23.0,36.0,92,-99.99,,,-99.99,,2013-01-28 07:41:00,
2013-01-27 23:51:00,35.0,33.0,-100.00,WSW,254,22.0,31.0,92,-99.99,,,-99.99,,2013-01-28 07:51:00,